CheckWX is a tool to help pilots better visualize weather data.  It is not intended as a substitute for an official pre-flight weather briefing.

04:50:08 UTC

96D METAR
Walhalla Municipal Airport
Walhalla, North Dakota, USA
Current

35 mins ago

K96D 280415Z AUTO 13005KT 10SM SCT017 BKN031 OVC060 M11/M11 A3010 RMK AO2
Observed
Feb-28 @ 04:15 UTC
Wind
  • 130° at 5 KTS
Visibility
10 SM
Flight Rules
VFR
Cloud Levels
  • Scattered at 1,700' AGL
  • Broken at 3,100' AGL
  • Overcast at 6,000' AGL
Temperature
-11°C / 12°F
Dewpoint
-11°C / 12°F
Humidity
100%
Altimeter
30.1" Hg
Pressure
1019.32 hPa
Previous

55 mins ago

K96D 280355Z AUTO 15003KT 10SM FEW031 OVC055 M11/M10 A3010 RMK AO2
Observed
Feb-28 @ 03:55 UTC
Wind
  • 150° at 3 KTS
Visibility
10 SM
Flight Rules
VFR
Cloud Levels
  • Few at 3,100' AGL
  • Overcast at 5,500' AGL
Temperature
-11°C / 12°F
Dewpoint
-10°C / 14°F
Humidity
108%
Altimeter
30.1" Hg
Pressure
1019.32 hPa
Previous

1 hour ago

K96D 280335Z AUTO 16004KT 10SM OVC055 M10/M10 A3009 RMK AO2
Observed
Feb-28 @ 03:35 UTC
Wind
  • 160° at 4 KTS
Visibility
10 SM
Flight Rules
VFR
Cloud Levels
  • Overcast at 5,500' AGL
Temperature
-10°C / 14°F
Dewpoint
-10°C / 14°F
Humidity
100%
Altimeter
30.09" Hg
Pressure
1018.92 hPa